Time;durP1;ratioP1;P1;durP2;ratioP2;P2;SDS_P1;SDS_P2;PMS_P1;PMS_P2;Temp;Humidity;BMP_temperature;BMP_pressure;BME280_temperature;BME280_humidity;BME280_pressure;Samples;Min_cycle;Max_cycle;Signal;HPM_P1;HPM_P2
2022/08/30 00:01:07;;;;;;;;;;;;;;;21.83;27.83;97849.28;4981126;28;867;-81
2022/08/30 00:03:41;;;;;;;;;;;;;;;21.94;27.86;97851.78;4980237;28;900;-80
2022/08/30 00:06:07;;;;;;;;;;;;;;;21.99;27.95;97848.38;4995479;28;997;-81
2022/08/30 00:08:33;;;;;;;;;;;;;;;22.00;27.75;97854.84;4979361;28;934;-81
2022/08/30 00:10:58;;;;;;;;;;;;;;;22.07;27.76;97843.28;4995392;28;1261;-81
2022/08/30 00:13:24;;;;;;;;;;;;;;;22.07;27.83;97844.09;4995751;28;1971;-80
2022/08/30 00:15:49;;;;;;;;;;;;;;;22.15;27.44;97849.56;4995464;28;998;-81
2022/08/30 00:18:16;;;;;;;;;;;;;;;22.22;27.43;97849.34;4975788;28;1039;-81
2022/08/30 00:20:42;;;;;;;;;;;;;;;21.98;27.99;97851.69;4975510;28;1006;-81
2022/08/30 00:23:07;;;;;;;;;;;;;;;21.97;27.75;97845.22;4975757;28;982;-81
2022/08/30 00:25:33;;;;;;;;;;;;;;;22.13;27.84;97844.34;4976348;28;908;-80
2022/08/30 00:27:58;;;;;;;;;;;;;;;22.17;27.55;97847.84;4976328;28;984;-81
2022/08/30 00:30:24;;;;;;;;;;;;;;;21.78;28.17;97843.38;4975989;28;906;-81
2022/08/30 00:32:49;;;;;;;;;;;;;;;21.63;28.49;97842.19;4975752;28;1183;-80
2022/08/30 00:35:15;;;;;;;;;;;;;;;21.78;28.25;97838.50;4975759;28;1990;-80
2022/08/30 00:37:41;;;;;;;;;;;;;;;22.14;27.59;97845.94;4975692;28;992;-81
2022/08/30 00:40:08;;;;;;;;;;;;;;;21.69;28.15;97840.41;4975988;28;987;-81
2022/08/30 00:42:33;;;;;;;;;;;;;;;22.10;27.48;97848.06;4976140;28;968;-81
2022/08/30 00:44:59;;;;;;;;;;;;;;;21.98;27.79;97840.34;4975784;28;1009;-81
2022/08/30 00:47:24;;;;;;;;;;;;;;;21.81;27.76;97837.59;4975635;28;1023;-81
2022/08/30 00:49:51;;;;;;;;;;;;;;;21.88;27.63;97835.81;4992384;28;998;-80
2022/08/30 00:52:16;;;;;;;;;;;;;;;21.79;27.89;97845.75;4997984;28;843;-80
2022/08/30 00:54:43;;;;;;;;;;;;;;;21.90;27.58;97844.63;4975542;28;1910;-80
2022/08/30 00:57:09;;;;;;;;;;;;;;;21.96;27.63;97845.66;4975752;28;964;-81
2022/08/30 00:59:35;;;;;;;;;;;;;;;21.75;27.92;97842.22;4975605;28;1066;-81
2022/08/30 01:02:00;;;;;;;;;;;;;;;21.76;27.96;97840.19;4975431;28;978;-81
2022/08/30 01:04:26;;;;;;;;;;;;;;;22.02;27.79;97846.69;4975458;28;930;-80
2022/08/30 01:06:52;;;;;;;;;;;;;;;21.85;27.89;97849.59;4975646;28;962;-81
2022/08/30 01:09:17;;;;;;;;;;;;;;;21.82;27.99;97844.84;4975970;28;1014;-81
2022/08/30 01:11:43;;;;;;;;;;;;;;;21.95;27.52;97841.25;4975279;28;1009;-80
2022/08/30 01:14:10;;;;;;;;;;;;;;;21.77;27.85;97838.97;4975263;28;1914;-81
2022/08/30 01:16:35;;;;;;;;;;;;;;;22.03;27.51;97831.28;4975359;28;916;-81
2022/08/30 01:19:01;;;;;;;;;;;;;;;21.81;28.09;97846.09;4975432;28;894;-81
2022/08/30 01:21:27;;;;;;;;;;;;;;;21.99;27.50;97841.94;4975719;28;937;-80
2022/08/30 01:23:52;;;;;;;;;;;;;;;21.95;27.47;97835.56;4975285;28;1011;-81
2022/08/30 01:26:18;;;;;;;;;;;;;;;22.03;27.46;97843.41;4979635;28;930;-81
2022/08/30 01:28:44;;;;;;;;;;;;;;;21.89;27.63;97851.53;4996788;28;966;-81
2022/08/30 01:31:09;;;;;;;;;;;;;;;22.05;27.42;97837.28;4980139;28;978;-80
2022/08/30 01:33:36;;;;;;;;;;;;;;;21.99;27.59;97839.88;5000563;28;1891;-81
2022/08/30 01:36:03;;;;;;;;;;;;;;;21.90;27.65;97844.63;4983869;28;874;-80
2022/08/30 01:38:33;;;;;;;;;;;;;;;22.12;27.29;97839.13;4982948;28;986;-81
2022/08/30 01:40:59;;;;;;;;;;;;;;;21.70;28.06;97837.09;4983302;28;888;-81
2022/08/30 01:43:25;;;;;;;;;;;;;;;21.91;27.80;97841.34;4983478;28;953;-81
2022/08/30 01:45:50;;;;;;;;;;;;;;;21.73;28.04;97841.88;4983385;28;992;-80
2022/08/30 01:48:16;;;;;;;;;;;;;;;21.84;27.96;97845.19;5000728;28;901;-81
2022/08/30 01:50:41;;;;;;;;;;;;;;;21.77;27.86;97841.78;5000592;28;1009;-81
2022/08/30 01:53:07;;;;;;;;;;;;;;;21.84;27.76;97848.03;5000400;28;1988;-80
2022/08/30 01:55:33;;;;;;;;;;;;;;;21.74;27.81;97843.47;4983157;28;855;-81
2022/08/30 01:57:58;;;;;;;;;;;;;;;21.83;27.68;97839.97;4983178;28;953;-80
2022/08/30 02:00:24;;;;;;;;;;;;;;;21.91;27.62;97835.66;4982636;28;970;-80
2022/08/30 02:02:50;;;;;;;;;;;;;;;21.89;27.86;97834.56;4982715;28;1003;-81
2022/08/30 02:05:16;;;;;;;;;;;;;;;21.90;27.55;97836.13;5000013;28;851;-81
2022/08/30 02:07:41;;;;;;;;;;;;;;;21.81;27.74;97831.94;4999973;28;941;-81
2022/08/30 02:10:07;;;;;;;;;;;;;;;21.75;27.93;97839.38;4978318;28;932;-81
2022/08/30 02:12:33;;;;;;;;;;;;;;;21.83;27.74;97835.09;4978290;28;1023;-81
2022/08/30 02:14:59;;;;;;;;;;;;;;;21.97;27.64;97835.94;4978182;28;1989;-81
2022/08/30 02:17:26;;;;;;;;;;;;;;;21.80;27.66;97835.22;4962210;28;1007;-80
2022/08/30 02:19:51;;;;;;;;;;;;;;;21.67;27.73;97835.19;4978070;28;988;-81
2022/08/30 02:22:17;;;;;;;;;;;;;;;21.81;27.52;97840.44;4978027;28;1084;-81
2022/08/30 02:24:42;;;;;;;;;;;;;;;21.73;27.93;97841.88;4978341;28;982;-81
2022/08/30 02:27:07;;;;;;;;;;;;;;;21.50;27.96;97840.13;4978036;28;1079;-81
2022/08/30 02:29:33;;;;;;;;;;;;;;;21.88;27.50;97835.81;4977816;28;1007;-81
2022/08/30 02:31:58;;;;;;;;;;;;;;;21.81;27.48;97848.94;4977940;28;1129;-80
2022/08/30 02:34:24;;;;;;;;;;;;;;;21.99;27.15;97836.25;4977706;28;1965;-81
2022/08/30 02:36:49;;;;;;;;;;;;;;;22.01;27.10;97845.09;4977709;28;957;-81
2022/08/30 02:39:15;;;;;;;;;;;;;;;21.84;27.60;97845.19;4977975;28;941;-81
2022/08/30 02:41:40;;;;;;;;;;;;;;;21.74;27.42;97846.31;4981419;28;1006;-81
2022/08/30 02:44:06;;;;;;;;;;;;;;;21.74;27.57;97851.16;4958545;29;1031;-80
2022/08/30 02:46:31;;;;;;;;;;;;;;;21.71;27.67;97850.06;4958666;29;980;-81
2022/08/30 02:48:57;;;;;;;;;;;;;;;21.83;27.69;97852.09;4958268;29;980;-81
2022/08/30 02:51:22;;;;;;;;;;;;;;;21.73;27.59;97846.75;4958235;29;962;-81
2022/08/30 02:53:48;;;;;;;;;;;;;;;21.70;27.58;97853.31;4958336;29;1891;-81
2022/08/30 02:56:14;;;;;;;;;;;;;;;21.79;27.44;97851.41;4958375;29;1022;-81
2022/08/30 02:58:41;;;;;;;;;;;;;;;21.86;27.26;97850.41;4958130;29;1021;-81
2022/08/30 03:01:06;;;;;;;;;;;;;;;21.64;27.57;97855.91;4957971;29;1133;-81
2022/08/30 03:03:32;;;;;;;;;;;;;;;21.83;27.33;97857.75;4958056;29;895;-81
2022/08/30 03:05:57;;;;;;;;;;;;;;;21.85;27.26;97860.94;4958410;29;908;-81
2022/08/30 03:08:23;;;;;;;;;;;;;;;21.77;27.37;97853.13;4957860;29;990;-81
2022/08/30 03:10:48;;;;;;;;;;;;;;;21.78;27.54;97858.31;4958443;29;997;-80
2022/08/30 03:13:14;;;;;;;;;;;;;;;21.59;27.74;97862.13;4941815;29;1910;-81
2022/08/30 03:15:39;;;;;;;;;;;;;;;21.75;27.61;97867.72;4986688;28;1022;-81
2022/08/30 03:18:05;;;;;;;;;;;;;;;22.14;27.41;97867.81;4996440;28;910;-81
2022/08/30 03:20:30;;;;;;;;;;;;;;;22.21;28.20;97868.38;4997980;28;952;-81
2022/08/30 03:22:56;;;;;;;;;;;;;;;22.26;27.92;97862.16;4998854;28;923;-81
2022/08/30 03:25:22;;;;;;;;;;;;;;;22.22;27.82;97869.97;4957343;29;1000;-81
2022/08/30 03:27:49;;;;;;;;;;;;;;;22.06;28.17;97865.16;4957645;29;1138;-81
2022/08/30 03:30:15;;;;;;;;;;;;;;;21.99;28.31;97864.59;4957764;29;984;-81
2022/08/30 03:32:40;;;;;;;;;;;;;;;21.91;28.53;97866.03;4957949;29;1076;-81
2022/08/30 03:35:06;;;;;;;;;;;;;;;21.97;28.49;97861.44;4957388;29;1918;-81
2022/08/30 03:37:31;;;;;;;;;;;;;;;21.79;28.58;97862.75;4957832;29;945;-81
2022/08/30 03:39:57;;;;;;;;;;;;;;;21.76;28.64;97869.31;4957262;29;994;-81
2022/08/30 03:42:23;;;;;;;;;;;;;;;21.88;28.42;97864.13;4957502;29;907;-81
2022/08/30 03:44:48;;;;;;;;;;;;;;;21.67;28.45;97877.66;4957045;28;1002;-81
2022/08/30 03:47:14;;;;;;;;;;;;;;;21.87;28.25;97879.53;4941398;29;1012;-81
2022/08/30 03:49:39;;;;;;;;;;;;;;;21.91;28.40;97885.88;4957590;29;951;-81
2022/08/30 03:52:05;;;;;;;;;;;;;;;21.89;28.03;97883.50;4957073;29;999;-81
2022/08/30 03:54:30;;;;;;;;;;;;;;;21.91;27.99;97883.81;4956589;28;1879;-80
2022/08/30 03:56:56;;;;;;;;;;;;;;;21.65;28.42;97880.13;4971613;28;957;-80
2022/08/30 03:59:21;;;;;;;;;;;;;;;21.74;28.11;97888.00;4960674;28;931;-81
2022/08/30 04:01:46;;;;;;;;;;;;;;;21.66;28.07;97893.06;4976189;28;914;-81
2022/08/30 04:04:12;;;;;;;;;;;;;;;21.74;28.13;97888.78;4975994;28;990;-80
2022/08/30 04:06:37;;;;;;;;;;;;;;;21.72;28.19;97891.28;4976407;28;964;-81
2022/08/30 04:09:03;;;;;;;;;;;;;;;21.74;27.91;97888.78;4976729;28;999;-81
2022/08/30 04:11:28;;;;;;;;;;;;;;;21.90;27.83;97887.13;4976167;28;973;-81
2022/08/30 04:13:55;;;;;;;;;;;;;;;21.77;27.98;97893.56;4975946;28;1965;-81
2022/08/30 04:16:21;;;;;;;;;;;;;;;21.83;27.82;97900.25;4991809;28;986;-80
2022/08/30 04:18:46;;;;;;;;;;;;;;;21.76;27.96;97894.00;4997743;28;933;-81
2022/08/30 04:21:12;;;;;;;;;;;;;;;21.73;28.14;97903.41;4998143;28;908;-81
2022/08/30 04:23:37;;;;;;;;;;;;;;;21.64;28.18;97901.22;4997321;28;953;-81
2022/08/30 04:26:03;;;;;;;;;;;;;;;21.58;28.34;97897.34;4997657;28;862;-81
2022/08/30 04:28:28;;;;;;;;;;;;;;;21.82;27.96;97907.16;4997434;28;966;-80
2022/08/30 04:30:53;;;;;;;;;;;;;;;21.83;28.07;97908.75;4997794;28;872;-79
2022/08/30 04:33:19;;;;;;;;;;;;;;;21.87;27.96;97919.19;4997146;28;1973;-80
2022/08/30 04:35:46;;;;;;;;;;;;;;;21.73;28.02;97921.19;4996865;28;1097;-79
2022/08/30 04:38:12;;;;;;;;;;;;;;;21.70;28.26;97919.22;4987354;28;1289;-81
2022/08/30 04:40:40;;;;;;;;;;;;;;;21.84;28.14;97921.66;4997070;28;1350;-81
2022/08/30 04:43:05;;;;;;;;;;;;;;;21.66;28.25;97920.56;4985006;28;1294;-80
2022/08/30 04:45:31;;;;;;;;;;;;;;;21.79;27.99;97922.22;4948492;28;1355;-80
2022/08/30 04:47:56;;;;;;;;;;;;;;;21.85;27.97;97920.41;4980902;28;1207;-80
2022/08/30 04:50:22;;;;;;;;;;;;;;;21.79;28.05;97922.22;4984898;28;1259;-79
2022/08/30 04:52:47;;;;;;;;;;;;;;;21.81;28.43;97919.75;4967693;28;1306;-80
2022/08/30 04:55:13;;;;;;;;;;;;;;;21.71;28.42;97922.84;4964571;28;1922;-80
2022/08/30 04:57:39;;;;;;;;;;;;;;;21.56;28.73;97933.81;4967120;28;1283;-79
2022/08/30 05:00:08;;;;;;;;;;;;;;;21.78;28.11;97934.78;4965281;28;1367;-80
2022/08/30 05:02:34;;;;;;;;;;;;;;;21.92;28.25;97927.16;4909315;29;1428;-80
2022/08/30 05:07:44;;;;;;;;;;;;;;;21.82;28.30;97929.81;4912307;29;1266;-79
2022/08/30 05:10:09;;;;;;;;;;;;;;;21.89;28.50;97928.03;4911262;29;1380;-79
2022/08/30 05:12:35;;;;;;;;;;;;;;;21.88;28.37;97937.78;4910424;29;1432;-80
2022/08/30 05:15:00;;;;;;;;;;;;;;;22.06;28.23;97940.88;4933787;29;1914;-80
2022/08/30 05:17:26;;;;;;;;;;;;;;;21.85;28.59;97940.25;4940611;29;1467;-80
2022/08/30 05:19:51;;;;;;;;;;;;;;;21.97;28.24;97938.72;4940358;29;1312;-80
2022/08/30 05:22:17;;;;;;;;;;;;;;;21.74;28.59;97939.75;4883613;29;1385;-79
2022/08/30 05:24:42;;;;;;;;;;;;;;;21.81;28.66;97944.41;4883880;29;1314;-79
2022/08/30 05:27:08;;;;;;;;;;;;;;;21.84;28.46;97933.00;4883790;29;1385;-80
2022/08/30 05:29:33;;;;;;;;;;;;;;;21.77;28.61;97944.53;4867616;29;1468;-80
2022/08/30 05:31:59;;;;;;;;;;;;;;;21.97;28.29;97941.53;4883434;29;1353;-79
2022/08/30 05:34:24;;;;;;;;;;;;;;;21.77;28.85;97938.88;4911856;29;1931;-79
2022/08/30 05:36:50;;;;;;;;;;;;;;;21.92;28.62;97939.25;4920900;29;1387;-80
2022/08/30 05:39:15;;;;;;;;;;;;;;;21.89;28.43;97945.03;4920439;29;1505;-80
2022/08/30 05:41:41;;;;;;;;;;;;;;;21.81;28.58;97945.25;4889214;29;1431;-80
2022/08/30 05:44:07;;;;;;;;;;;;;;;21.75;28.71;97952.66;4894607;29;1463;-79
2022/08/30 05:46:33;;;;;;;;;;;;;;;21.75;28.75;97947.00;4861273;29;1138;-79
2022/08/30 05:49:00;;;;;;;;;;;;;;;21.81;29.06;97948.06;4840468;29;1314;-80
2022/08/30 05:51:27;;;;;;;;;;;;;;;21.87;28.84;97948.31;4809456;29;1339;-79
2022/08/30 05:53:53;;;;;;;;;;;;;;;21.97;28.77;97940.75;4768839;30;1908;-80
2022/08/30 05:56:19;;;;;;;;;;;;;;;22.04;28.83;97949.03;4773597;30;1352;-79
2022/08/30 05:58:45;;;;;;;;;;;;;;;21.85;28.89;97945.91;4773616;30;1363;-80
2022/08/30 06:01:20;;;;;;;;;;;;;;;21.92;28.71;97944.13;4773469;30;1328;-80
2022/08/30 06:03:46;;;;;;;;;;;;;;;21.97;28.77;97952.88;4773150;30;1310;-80
2022/08/30 06:06:11;;;;;;;;;;;;;;;21.93;29.09;97940.84;4737897;30;1455;-81
2022/08/30 06:08:37;;;;;;;;;;;;;;;22.01;28.91;97949.91;4723738;30;1432;-80
2022/08/30 06:11:02;;;;;;;;;;;;;;;22.00;28.63;97943.47;4720364;30;1439;-81
2022/08/30 06:13:28;;;;;;;;;;;;;;;21.57;29.41;97946.72;4720690;30;1916;-81
2022/08/30 06:15:53;;;;;;;;;;;;;;;21.82;29.31;97941.16;4734643;30;1378;-80
2022/08/30 06:18:18;;;;;;;;;;;;;;;21.95;29.16;97944.00;4766298;30;1325;-80
2022/08/30 06:20:46;;;;;;;;;;;;;;;21.90;29.02;97946.59;4773733;30;1443;-79
2022/08/30 06:23:11;;;;;;;;;;;;;;;21.99;29.20;97943.91;4773393;30;1481;-81
2022/08/30 06:25:37;;;;;;;;;;;;;;;21.85;29.24;97947.94;4773023;30;1380;-80
2022/08/30 06:28:03;;;;;;;;;;;;;;;22.07;29.20;97953.78;4781912;29;1328;-79
2022/08/30 06:30:29;;;;;;;;;;;;;;;22.18;28.95;97951.47;4778496;29;1351;-81
2022/08/30 06:32:55;;;;;;;;;;;;;;;21.90;29.16;97957.94;4808136;29;1462;-81
2022/08/30 06:35:21;;;;;;;;;;;;;;;21.95;29.09;97949.69;4768543;30;1994;-80
2022/08/30 06:37:46;;;;;;;;;;;;;;;22.10;29.54;97955.72;4813725;29;928;-82
2022/08/30 06:40:12;;;;;;;;;;;;;;;21.86;30.39;97952.38;4828597;29;809;-81
2022/08/30 06:42:38;;;;;;;;;;;;;;;22.18;30.04;97954.31;4809463;29;1224;-83
2022/08/30 06:45:04;;;;;;;;;;;;;;;22.29;31.20;97962.50;4823410;29;1310;-80
2022/08/30 06:47:29;;;;;;;;;;;;;;;22.24;31.06;97960.22;4808388;29;1433;-81
2022/08/30 06:49:55;;;;;;;;;;;;;;;22.28;30.60;97961.72;4808088;29;1255;-80
2022/08/30 06:52:21;;;;;;;;;;;;;;;22.10;30.81;97958.56;4818939;29;1223;-80
2022/08/30 06:54:46;;;;;;;;;;;;;;;21.97;30.81;97955.72;4818643;29;1994;-80
2022/08/30 06:57:12;;;;;;;;;;;;;;;22.20;30.37;97960.31;4816684;29;1242;-81
2022/08/30 06:59:37;;;;;;;;;;;;;;;22.04;30.17;97952.66;4782170;30;1489;-81
2022/08/30 07:02:03;;;;;;;;;;;;;;;22.15;30.09;97952.38;4796103;29;1418;-81
2022/08/30 07:04:28;;;;;;;;;;;;;;;22.14;29.85;97953.63;4854635;29;1202;-81
2022/08/30 07:06:54;;;;;;;;;;;;;;;22.17;29.79;97961.22;4856708;29;1332;-81
2022/08/30 07:09:19;;;;;;;;;;;;;;;22.28;29.59;97956.03;4890465;29;1233;-81
2022/08/30 07:11:45;;;;;;;;;;;;;;;22.30;29.45;97956.38;4862971;29;1229;-81
2022/08/30 07:14:10;;;;;;;;;;;;;;;22.22;29.55;97966.31;4876631;29;1919;-81
2022/08/30 07:16:36;;;;;;;;;;;;;;;22.26;29.49;97958.50;4850283;29;1317;-81
2022/08/30 07:19:02;;;;;;;;;;;;;;;22.06;29.65;97960.69;4881571;29;1374;-81
2022/08/30 07:21:28;;;;;;;;;;;;;;;21.96;30.10;97961.81;4866426;29;1279;-81
2022/08/30 07:23:54;;;;;;;;;;;;;;;21.95;29.92;97960.22;4818270;29;1318;-81
2022/08/30 07:26:21;;;;;;;;;;;;;;;22.25;29.51;97961.81;4818606;29;1241;-81
2022/08/30 07:28:47;;;;;;;;;;;;;;;22.15;29.82;97960.88;4817442;29;1213;-81
2022/08/30 07:31:13;;;;;;;;;;;;;;;22.16;29.80;97964.50;4814055;29;1251;-81
2022/08/30 07:33:39;;;;;;;;;;;;;;;22.07;29.51;97957.44;4830143;29;1919;-80
2022/08/30 07:36:05;;;;;;;;;;;;;;;22.09;29.80;97960.59;4811349;29;909;-81
2022/08/30 07:38:30;;;;;;;;;;;;;;;22.15;29.83;97968.59;4826815;29;996;-81
2022/08/30 07:40:59;;;;;;;;;;;;;;;22.10;29.54;97965.06;4833916;29;1057;-81
2022/08/30 07:43:25;;;;;;;;;;;;;;;22.06;29.62;97955.81;4847502;29;862;-80
2022/08/30 07:45:51;;;;;;;;;;;;;;;22.26;29.58;97957.72;4862459;29;783;-81
2022/08/30 07:48:16;;;;;;;;;;;;;;;22.08;29.76;97958.22;4871651;29;1080;-81
2022/08/30 07:50:47;;;;;;;;;;;;;;;22.09;29.77;97954.16;5148999;27;1271;-81
2022/08/30 07:53:13;;;;;;;;;;;;;;;21.99;29.68;97950.38;5112332;28;966;-81
2022/08/30 07:55:38;;;;;;;;;;;;;;;21.83;29.94;97951.25;5071727;28;973;-81
2022/08/30 07:58:04;;;;;;;;;;;;;;;22.00;29.81;97945.50;5072041;28;1002;-81
2022/08/30 08:00:29;;;;;;;;;;;;;;;22.19;29.45;97953.06;5071810;28;912;-81
2022/08/30 08:02:55;;;;;;;;;;;;;;;22.34;29.24;97951.41;5071786;28;1011;-81
2022/08/30 08:05:20;;;;;;;;;;;;;;;22.34;29.13;97953.44;5071781;28;914;-81
2022/08/30 08:07:46;;;;;;;;;;;;;;;22.19;29.67;97953.06;5071690;28;961;-81
2022/08/30 08:10:12;;;;;;;;;;;;;;;22.21;29.46;97961.13;5088040;28;1914;-81
2022/08/30 08:12:38;;;;;;;;;;;;;;;22.24;29.25;97946.84;5071556;28;1008;-81
2022/08/30 08:15:03;;;;;;;;;;;;;;;22.27;29.50;97950.81;5071122;28;1013;-80
2022/08/30 08:17:29;;;;;;;;;;;;;;;22.11;29.61;97946.00;5071145;28;1034;-82
2022/08/30 08:19:54;;;;;;;;;;;;;;;21.93;29.84;97946.50;5051173;28;965;-82
2022/08/30 08:22:20;;;;;;;;;;;;;;;21.85;30.13;97945.13;5031154;28;973;-82
2022/08/30 08:24:45;;;;;;;;;;;;;;;22.29;29.61;97943.44;5045751;28;1037;-82
2022/08/30 08:27:11;;;;;;;;;;;;;;;22.10;29.72;97939.56;5037207;28;1005;-81
2022/08/30 08:29:36;;;;;;;;;;;;;;;22.12;29.76;97941.94;5031681;28;1910;-80
2022/08/30 08:32:02;;;;;;;;;;;;;;;21.98;29.82;97943.13;5031813;28;972;-81
2022/08/30 08:34:27;;;;;;;;;;;;;;;22.18;29.88;97948.66;5047503;28;1019;-80
2022/08/30 08:36:53;;;;;;;;;;;;;;;22.04;29.90;97943.38;5031316;28;925;-82
2022/08/30 08:39:18;;;;;;;;;;;;;;;22.10;30.06;97941.56;5030919;28;1152;-81
2022/08/30 08:41:43;;;;;;;;;;;;;;;22.38;29.36;97950.47;5030734;28;931;-82
2022/08/30 08:44:12;;;;;;;;;;;;;;;21.98;30.14;97933.84;5030885;28;914;-81
2022/08/30 08:46:43;;;;;;;;;;;;;;;22.00;29.88;97934.16;5045855;28;961;-81
2022/08/30 08:49:08;;;;;;;;;;;;;;;22.16;30.04;97936.94;5034129;28;1910;-81
2022/08/30 08:54:21;;;;;;;;;;;;;;;21.91;30.05;97926.31;5107574;28;1005;-81
2022/08/30 08:56:47;;;;;;;;;;;;;;;22.01;30.31;97930.09;5122182;27;939;-81
2022/08/30 08:59:12;;;;;;;;;;;;;;;22.06;30.10;97929.53;5152414;27;948;-81
2022/08/30 09:01:38;;;;;;;;;;;;;;;22.03;30.21;97933.28;5141908;27;1003;-81
2022/08/30 09:04:11;;;;;;;;;;;;;;;22.01;30.21;97922.38;5138428;27;1071;-81
2022/08/30 09:06:39;;;;;;;;;;;;;;;22.41;29.44;97930.53;5141469;27;874;-80
2022/08/30 09:09:05;;;;;;;;;;;;;;;22.19;29.85;97930.41;5117386;28;1989;-81
2022/08/30 09:11:32;;;;;;;;;;;;;;;22.07;29.96;97931.13;5117512;28;928;-81
2022/08/30 09:13:57;;;;;;;;;;;;;;;21.97;30.46;97923.75;5100875;28;942;-81
2022/08/30 09:16:41;;;;;;;;;;;;;;;22.21;29.82;97935.59;5117900;28;1035;-81
2022/08/30 09:19:07;;;;;;;;;;;;;;;21.98;30.28;97925.34;5117661;28;892;-81
2022/08/30 09:21:32;;;;;;;;;;;;;;;22.01;30.06;97927.25;5117458;28;1062;-81
2022/08/30 09:23:59;;;;;;;;;;;;;;;22.23;30.12;97919.75;5114588;28;1212;-81
2022/08/30 09:26:29;;;;;;;;;;;;;;;22.31;29.72;97923.94;5111286;28;1203;-81
2022/08/30 09:28:54;;;;;;;;;;;;;;;22.19;30.05;97918.28;5084895;28;1913;-81
2022/08/30 09:31:20;;;;;;;;;;;;;;;22.06;30.22;97910.50;5087964;28;1228;-81
2022/08/30 09:33:55;;;;;;;;;;;;;;;22.03;30.26;97911.41;5096351;28;896;-81
2022/08/30 09:36:26;;;;;;;;;;;;;;;21.94;30.53;97913.31;5076542;28;986;-81
2022/08/30 09:39:02;;;;;;;;;;;;;;;22.05;30.21;97913.78;5056250;28;1001;-80
2022/08/30 09:41:34;;;;;;;;;;;;;;;22.30;29.93;97919.53;5096335;28;956;-81
2022/08/30 09:44:20;;;;;;;;;;;;;;;22.40;29.78;97916.81;5079640;28;983;-81
2022/08/30 09:46:56;;;;;;;;;;;;;;;22.29;30.17;97917.94;5095863;28;977;-80
2022/08/30 09:49:36;;;;;;;;;;;;;;;22.30;30.19;97907.41;5043002;28;1975;-81
2022/08/30 09:52:20;;;;;;;;;;;;;;;22.11;30.35;97900.66;5043198;28;1119;-81
2022/08/30 09:55:04;;;;;;;;;;;;;;;22.06;30.49;97915.38;5039756;28;1209;-82
2022/08/30 09:57:59;;;;;;;;;;;;;;;22.10;30.57;97913.22;5036302;28;947;-82
2022/08/30 10:00:27;;;;;;;;;;;;;;;22.25;30.02;97905.91;4977175;28;985;-82
2022/08/30 10:03:06;;;;;;;;;;;;;;;22.34;30.25;97914.53;4977263;28;941;-82
2022/08/30 10:06:03;;;;;;;;;;;;;;;22.47;29.59;97914.53;4977400;28;935;-82
2022/08/30 10:08:31;;;;;;;;;;;;;;;22.27;30.25;97909.06;4961088;28;1977;-83
2022/08/30 10:11:01;;;;;;;;;;;;;;;22.13;30.26;97908.75;4961217;28;1001;-81
2022/08/30 10:13:35;;;;;;;;;;;;;;;22.09;30.31;97908.81;4969252;28;990;-82
2022/08/30 10:16:00;;;;;;;;;;;;;;;22.12;30.32;97913.59;4957565;29;2071;-82
2022/08/30 10:18:32;;;;;;;;;;;;;;;22.31;30.19;97914.66;4957924;29;973;-82
2022/08/30 10:21:03;;;;;;;;;;;;;;;22.09;30.34;97905.97;4972100;28;967;-83
2022/08/30 10:23:36;;;;;;;;;;;;;;;22.26;30.40;97901.81;4977016;28;1161;-82
2022/08/30 10:26:06;;;;;;;;;;;;;;;22.28;30.35;97904.22;4977059;28;900;-82
2022/08/30 10:28:36;;;;;;;;;;;;;;;22.46;29.71;97892.31;4938178;29;1902;-82
2022/08/30 10:31:03;;;;;;;;;;;;;;;22.31;29.95;97904.09;4954709;29;1308;-82
2022/08/30 10:33:31;;;;;;;;;;;;;;;22.32;30.09;97897.19;4951814;28;984;-82
2022/08/30 10:35:57;;;;;;;;;;;;;;;22.49;30.00;97902.75;4960163;28;995;-82
2022/08/30 10:38:26;;;;;;;;;;;;;;;22.01;30.68;97896.09;4960619;28;938;-82
2022/08/30 10:41:15;;;;;;;;;;;;;;;22.06;30.59;97887.03;4960708;28;1371;-82
2022/08/30 10:43:59;;;;;;;;;;;;;;;22.23;30.42;97896.28;4957266;29;1025;-83
2022/08/30 10:46:43;;;;;;;;;;;;;;;22.08;30.54;97890.22;4957237;29;933;-82
2022/08/30 10:49:11;;;;;;;;;;;;;;;22.08;30.65;97891.03;4956845;28;1964;-83
2022/08/30 10:52:11;;;;;;;;;;;;;;;22.20;30.77;97891.50;4941277;29;1123;-83
2022/08/30 10:54:43;;;;;;;;;;;;;;;22.38;30.21;97896.63;4918781;29;1150;-82
2022/08/30 10:57:08;;;;;;;;;;;;;;;22.44;30.34;97889.16;4918670;29;989;-82
2022/08/30 10:59:34;;;;;;;;;;;;;;;22.40;30.17;97894.13;4927863;29;1311;-83
2022/08/30 11:02:22;;;;;;;;;;;;;;;22.27;30.31;97896.94;4934354;29;1050;-82
2022/08/30 11:05:06;;;;;;;;;;;;;;;22.12;30.54;97884.47;4937376;29;1058;-82
2022/08/30 11:07:43;;;;;;;;;;;;;;;22.32;30.32;97894.34;4937580;29;939;-82
2022/08/30 11:10:16;;;;;;;;;;;;;;;22.35;30.32;97887.00;4940392;29;1969;-83
2022/08/30 11:12:54;;;;;;;;;;;;;;;22.30;30.53;97885.50;4937876;29;958;-82
2022/08/30 11:15:22;;;;;;;;;;;;;;;22.36;30.58;97889.38;4918355;29;1281;-82
2022/08/30 11:17:59;;;;;;;;;;;;;;;22.19;30.93;97879.38;4899512;29;865;-83
2022/08/30 11:20:36;;;;;;;;;;;;;;;22.32;30.33;97880.16;4910989;29;974;-82
2022/08/30 11:23:14;;;;;;;;;;;;;;;22.29;30.79;97869.75;4880953;29;2048;-82
2022/08/30 11:25:46;;;;;;;;;;;;;;;22.41;30.38;97862.50;4880833;29;954;-82
2022/08/30 11:28:12;;;;;;;;;;;;;;;22.38;30.36;97856.94;4843654;29;1314;-83
2022/08/30 11:30:37;;;;;;;;;;;;;;;22.21;30.64;97848.53;4843652;29;1889;-83
2022/08/30 11:33:08;;;;;;;;;;;;;;;22.33;30.69;97856.28;4843589;29;1010;-82
2022/08/30 11:35:34;;;;;;;;;;;;;;;22.39;30.59;97850.03;4851558;29;971;-82
2022/08/30 11:37:59;;;;;;;;;;;;;;;22.46;30.15;97858.28;4862120;29;1244;-82
2022/08/30 11:40:25;;;;;;;;;;;;;;;22.34;30.71;97846.50;4862324;29;855;-83
2022/08/30 11:42:51;;;;;;;;;;;;;;;22.42;30.58;97841.41;4870084;29;934;-83
2022/08/30 11:45:22;;;;;;;;;;;;;;;22.53;30.47;97835.38;4935167;29;944;-82
2022/08/30 11:47:56;;;;;;;;;;;;;;;22.50;30.11;97839.13;4942174;28;996;-83
2022/08/30 11:50:24;;;;;;;;;;;;;;;22.47;30.56;97837.19;4997434;28;1906;-82
2022/08/30 11:52:52;;;;;;;;;;;;;;;22.44;30.40;97821.13;5014324;28;1022;-82
2022/08/30 11:55:38;;;;;;;;;;;;;;;22.29;30.42;97827.25;5054318;28;989;-82
2022/08/30 11:58:06;;;;;;;;;;;;;;;22.32;30.47;97837.66;4996291;28;895;-82
2022/08/30 12:00:39;;;;;;;;;;;;;;;22.21;30.86;97831.53;5034402;28;965;-82
2022/08/30 12:03:26;;;;;;;;;;;;;;;22.41;30.33;97827.69;5054283;28;942;-82
2022/08/30 12:05:55;;;;;;;;;;;;;;;22.32;30.43;97831.97;5054573;28;887;-83
2022/08/30 12:08:26;;;;;;;;;;;;;;;22.21;30.69;97823.03;5054022;28;960;-83
2022/08/30 12:10:55;;;;;;;;;;;;;;;22.28;30.50;97831.31;5054216;28;1980;-82
2022/08/30 12:13:50;;;;;;;;;;;;;;;22.28;30.75;97831.31;5054274;28;978;-83
2022/08/30 12:16:18;;;;;;;;;;;;;;;22.26;30.91;97833.81;4994700;28;1102;-83
2022/08/30 12:18:45;;;;;;;;;;;;;;;22.35;30.46;97833.91;4956018;29;915;-83
2022/08/30 12:21:20;;;;;;;;;;;;;;;22.24;30.79;97830.63;4975258;28;1136;-82
2022/08/30 12:23:48;;;;;;;;;;;;;;;22.41;30.25;97822.00;4975152;28;937;-82
2022/08/30 12:26:16;;;;;;;;;;;;;;;22.35;30.38;97814.06;4975394;28;996;-82
2022/08/30 12:28:42;;;;;;;;;;;;;;;22.29;30.55;97821.56;5008328;28;1906;-81
2022/08/30 12:31:15;;;;;;;;;;;;;;;22.29;30.84;97826.44;5014209;28;923;-82
2022/08/30 12:33:44;;;;;;;;;;;;;;;22.40;30.26;97814.75;5007488;28;1064;-82
2022/08/30 12:36:29;;;;;;;;;;;;;;;22.35;30.33;97828.25;4996409;28;1126;-82
2022/08/30 12:39:03;;;;;;;;;;;;;;;22.31;30.85;97824.72;5018130;28;1000;-83
2022/08/30 12:41:29;;;;;;;;;;;;;;;22.56;29.86;97823.13;5017886;28;938;-82
2022/08/30 12:43:54;;;;;;;;;;;;;;;22.30;30.41;97806.16;5017663;28;982;-83
2022/08/30 12:46:20;;;;;;;;;;;;;;;22.45;30.56;97805.69;5001596;28;945;-83
2022/08/30 12:48:46;;;;;;;;;;;;;;;22.32;30.49;97823.47;4997012;28;1914;-81
2022/08/30 12:51:27;;;;;;;;;;;;;;;22.43;30.34;97814.63;4996024;28;1354;-83
2022/08/30 12:53:54;;;;;;;;;;;;;;;22.26;30.81;97828.13;4959126;28;1126;-82
2022/08/30 12:56:20;;;;;;;;;;;;;;;22.47;30.27;97815.31;4959624;28;925;-82
2022/08/30 12:58:46;;;;;;;;;;;;;;;22.31;30.80;97806.94;4957471;29;956;-83
2022/08/30 13:01:14;;;;;;;;;;;;;;;22.32;30.59;97809.31;4942993;29;934;-82
2022/08/30 13:03:40;;;;;;;;;;;;;;;22.43;30.45;97808.94;4997942;28;1054;-83
2022/08/30 13:06:06;;;;;;;;;;;;;;;22.28;30.57;97808.66;4998240;28;920;-83
2022/08/30 13:08:35;;;;;;;;;;;;;;;22.21;30.53;97808.88;4997828;28;1967;-82
2022/08/30 13:11:02;;;;;;;;;;;;;;;22.35;30.28;97808.41;5035776;28;998;-83